sensor_id;sensor_type;location;lat;lon;timestamp;pressure;altitude;pressure_sealevel;temperature;humidity
47726;BME280;33483;48.294;16.388;2023-03-14T00:01:22;97938.88;;;8.28;100.00
47726;BME280;33483;48.294;16.388;2023-03-14T00:03:50;97945.44;;;8.10;100.00
47726;BME280;33483;48.294;16.388;2023-03-14T00:06:18;97948.72;;;8.00;100.00
47726;BME280;33483;48.294;16.388;2023-03-14T00:08:45;97944.88;;;7.96;100.00
47726;BME280;33483;48.294;16.388;2023-03-14T00:11:17;97935.88;;;8.03;100.00
47726;BME280;33483;48.294;16.388;2023-03-14T00:13:48;97929.44;;;8.08;100.00
47726;BME280;33483;48.294;16.388;2023-03-14T00:16:15;97920.97;;;8.06;100.00
47726;BME280;33483;48.294;16.388;2023-03-14T00:18:42;97920.06;;;8.11;100.00
47726;BME280;33483;48.294;16.388;2023-03-14T00:21:12;97913.44;;;8.07;100.00
47726;BME280;33483;48.294;16.388;2023-03-14T00:23:40;97907.19;;;8.06;100.00
47726;BME280;33483;48.294;16.388;2023-03-14T00:26:10;97899.44;;;7.97;100.00
47726;BME280;33483;48.294;16.388;2023-03-14T00:28:40;97900.72;;;7.88;100.00
47726;BME280;33483;48.294;16.388;2023-03-14T00:31:09;97895.72;;;7.72;100.00
47726;BME280;33483;48.294;16.388;2023-03-14T00:33:37;97887.63;;;7.66;100.00
47726;BME280;33483;48.294;16.388;2023-03-14T00:36:07;97893.50;;;7.63;100.00
47726;BME280;33483;48.294;16.388;2023-03-14T00:38:36;97895.66;;;7.57;100.00
47726;BME280;33483;48.294;16.388;2023-03-14T00:41:04;97886.81;;;7.43;100.00
47726;BME280;33483;48.294;16.388;2023-03-14T00:43:32;97897.63;;;7.41;100.00
47726;BME280;33483;48.294;16.388;2023-03-14T00:45:59;97889.91;;;7.40;100.00
47726;BME280;33483;48.294;16.388;2023-03-14T00:48:26;97888.75;;;7.28;100.00
47726;BME280;33483;48.294;16.388;2023-03-14T00:50:53;97882.66;;;7.14;100.00
47726;BME280;33483;48.294;16.388;2023-03-14T00:53:20;97876.53;;;7.01;100.00
47726;BME280;33483;48.294;16.388;2023-03-14T00:55:47;97857.50;;;6.82;100.00
47726;BME280;33483;48.294;16.388;2023-03-14T00:58:16;97856.19;;;6.75;100.00
47726;BME280;33483;48.294;16.388;2023-03-14T01:00:43;97864.03;;;6.64;100.00
47726;BME280;33483;48.294;16.388;2023-03-14T01:03:10;97849.81;;;6.52;100.00
47726;BME280;33483;48.294;16.388;2023-03-14T01:05:38;97840.97;;;6.46;100.00
47726;BME280;33483;48.294;16.388;2023-03-14T01:08:06;97836.31;;;6.62;100.00
47726;BME280;33483;48.294;16.388;2023-03-14T01:10:34;97847.31;;;6.62;100.00
47726;BME280;33483;48.294;16.388;2023-03-14T01:13:04;97834.31;;;6.70;100.00
47726;BME280;33483;48.294;16.388;2023-03-14T01:15:32;97817.94;;;6.64;100.00
47726;BME280;33483;48.294;16.388;2023-03-14T01:18:04;97821.44;;;6.65;100.00
47726;BME280;33483;48.294;16.388;2023-03-14T01:20:32;97819.00;;;6.54;100.00
47726;BME280;33483;48.294;16.388;2023-03-14T01:22:58;97813.94;;;6.65;100.00
47726;BME280;33483;48.294;16.388;2023-03-14T01:25:26;97819.13;;;6.76;100.00
47726;BME280;33483;48.294;16.388;2023-03-14T01:27:53;97812.56;;;6.87;100.00
47726;BME280;33483;48.294;16.388;2023-03-14T01:30:21;97811.44;;;6.82;100.00
47726;BME280;33483;48.294;16.388;2023-03-14T01:32:49;97803.88;;;6.75;100.00
47726;BME280;33483;48.294;16.388;2023-03-14T01:35:16;97816.53;;;6.71;100.00
47726;BME280;33483;48.294;16.388;2023-03-14T01:37:44;97801.47;;;6.72;100.00
47726;BME280;33483;48.294;16.388;2023-03-14T01:40:17;97798.38;;;6.75;100.00
47726;BME280;33483;48.294;16.388;2023-03-14T01:42:46;97795.66;;;6.83;100.00
47726;BME280;33483;48.294;16.388;2023-03-14T01:48:09;97788.84;;;6.76;100.00
47726;BME280;33483;48.294;16.388;2023-03-14T01:50:36;97783.09;;;6.67;100.00
47726;BME280;33483;48.294;16.388;2023-03-14T01:53:03;97791.31;;;6.59;100.00
47726;BME280;33483;48.294;16.388;2023-03-14T01:55:30;97796.25;;;6.53;100.00
47726;BME280;33483;48.294;16.388;2023-03-14T01:57:58;97805.78;;;6.52;100.00
47726;BME280;33483;48.294;16.388;2023-03-14T02:00:27;97802.47;;;6.54;100.00
47726;BME280;33483;48.294;16.388;2023-03-14T02:03:02;97803.63;;;6.58;100.00
47726;BME280;33483;48.294;16.388;2023-03-14T02:05:34;97795.16;;;6.56;100.00
47726;BME280;33483;48.294;16.388;2023-03-14T02:08:08;97802.66;;;6.48;100.00
47726;BME280;33483;48.294;16.388;2023-03-14T02:11:09;97796.34;;;6.40;100.00
47726;BME280;33483;48.294;16.388;2023-03-14T02:13:45;97794.69;;;6.37;100.00
47726;BME280;33483;48.294;16.388;2023-03-14T02:16:51;97805.28;;;6.33;100.00
47726;BME280;33483;48.294;16.388;2023-03-14T02:22:19;97795.59;;;6.40;100.00
47726;BME280;33483;48.294;16.388;2023-03-14T02:27:24;97792.81;;;6.32;100.00
47726;BME280;33483;48.294;16.388;2023-03-14T02:32:29;97805.91;;;6.39;100.00
47726;BME280;33483;48.294;16.388;2023-03-14T02:34:57;97810.84;;;6.41;100.00
47726;BME280;33483;48.294;16.388;2023-03-14T02:37:27;97820.38;;;6.40;100.00
47726;BME280;33483;48.294;16.388;2023-03-14T02:39:56;97817.78;;;6.34;100.00
47726;BME280;33483;48.294;16.388;2023-03-14T02:42:24;97821.81;;;6.33;100.00
47726;BME280;33483;48.294;16.388;2023-03-14T02:44:53;97823.66;;;6.38;100.00
47726;BME280;33483;48.294;16.388;2023-03-14T02:47:22;97833.94;;;6.38;100.00
47726;BME280;33483;48.294;16.388;2023-03-14T02:49:53;97846.34;;;6.31;100.00
47726;BME280;33483;48.294;16.388;2023-03-14T02:52:25;97830.94;;;6.28;100.00
47726;BME280;33483;48.294;16.388;2023-03-14T02:54:55;97819.53;;;6.24;100.00
47726;BME280;33483;48.294;16.388;2023-03-14T02:57:24;97822.78;;;6.15;100.00
47726;BME280;33483;48.294;16.388;2023-03-14T02:59:51;97832.78;;;6.05;100.00
47726;BME280;33483;48.294;16.388;2023-03-14T03:02:20;97837.28;;;5.95;100.00
47726;BME280;33483;48.294;16.388;2023-03-14T03:04:47;97855.28;;;5.96;100.00
47726;BME280;33483;48.294;16.388;2023-03-14T03:07:17;97863.03;;;6.05;100.00
47726;BME280;33483;48.294;16.388;2023-03-14T03:09:44;97891.13;;;6.11;100.00
47726;BME280;33483;48.294;16.388;2023-03-14T03:12:11;97902.00;;;6.17;100.00
47726;BME280;33483;48.294;16.388;2023-03-14T03:14:38;97893.75;;;6.17;100.00
47726;BME280;33483;48.294;16.388;2023-03-14T03:17:08;97904.22;;;6.18;100.00
47726;BME280;33483;48.294;16.388;2023-03-14T03:19:37;97916.88;;;6.21;100.00
47726;BME280;33483;48.294;16.388;2023-03-14T03:22:04;97917.09;;;6.23;100.00
47726;BME280;33483;48.294;16.388;2023-03-14T03:24:31;97911.06;;;6.25;100.00
47726;BME280;33483;48.294;16.388;2023-03-14T03:27:01;97912.00;;;6.27;100.00
47726;BME280;33483;48.294;16.388;2023-03-14T03:29:28;97922.25;;;6.27;100.00
47726;BME280;33483;48.294;16.388;2023-03-14T03:31:58;97915.81;;;6.24;100.00
47726;BME280;33483;48.294;16.388;2023-03-14T03:34:25;97912.38;;;6.31;100.00
47726;BME280;33483;48.294;16.388;2023-03-14T03:36:58;97902.31;;;6.34;100.00
47726;BME280;33483;48.294;16.388;2023-03-14T03:39:27;97902.19;;;6.39;100.00
47726;BME280;33483;48.294;16.388;2023-03-14T03:41:56;97906.53;;;6.35;100.00
47726;BME280;33483;48.294;16.388;2023-03-14T03:44:23;97908.38;;;6.32;100.00
47726;BME280;33483;48.294;16.388;2023-03-14T03:46:51;97905.63;;;6.32;100.00
47726;BME280;33483;48.294;16.388;2023-03-14T03:49:18;97902.47;;;6.28;100.00
47726;BME280;33483;48.294;16.388;2023-03-14T03:51:48;97894.41;;;6.30;100.00
47726;BME280;33483;48.294;16.388;2023-03-14T03:54:15;97898.63;;;6.31;100.00
47726;BME280;33483;48.294;16.388;2023-03-14T03:56:43;97893.06;;;6.44;100.00
47726;BME280;33483;48.294;16.388;2023-03-14T03:59:10;97895.69;;;6.57;100.00
47726;BME280;33483;48.294;16.388;2023-03-14T04:01:37;97897.78;;;6.64;100.00
47726;BME280;33483;48.294;16.388;2023-03-14T04:04:04;97896.50;;;6.65;100.00
47726;BME280;33483;48.294;16.388;2023-03-14T04:06:31;97894.75;;;6.75;100.00
47726;BME280;33483;48.294;16.388;2023-03-14T04:09:00;97888.53;;;6.82;100.00
47726;BME280;33483;48.294;16.388;2023-03-14T04:11:36;97896.66;;;6.88;100.00
47726;BME280;33483;48.294;16.388;2023-03-14T04:14:21;97916.81;;;6.83;100.00
47726;BME280;33483;48.294;16.388;2023-03-14T04:16:56;97904.72;;;6.86;100.00
47726;BME280;33483;48.294;16.388;2023-03-14T04:19:23;97900.53;;;6.93;100.00
47726;BME280;33483;48.294;16.388;2023-03-14T04:21:53;97898.16;;;6.97;100.00
47726;BME280;33483;48.294;16.388;2023-03-14T04:24:21;97903.53;;;7.02;100.00
47726;BME280;33483;48.294;16.388;2023-03-14T04:26:49;97906.63;;;6.99;100.00
47726;BME280;33483;48.294;16.388;2023-03-14T04:29:16;97910.47;;;6.96;100.00
47726;BME280;33483;48.294;16.388;2023-03-14T04:31:45;97906.38;;;6.89;100.00
47726;BME280;33483;48.294;16.388;2023-03-14T04:34:12;97906.00;;;6.85;100.00
47726;BME280;33483;48.294;16.388;2023-03-14T04:36:46;97905.06;;;6.82;100.00
47726;BME280;33483;48.294;16.388;2023-03-14T04:39:17;97902.84;;;6.81;100.00
47726;BME280;33483;48.294;16.388;2023-03-14T04:41:52;97901.22;;;6.85;100.00
47726;BME280;33483;48.294;16.388;2023-03-14T04:44:20;97911.19;;;6.96;100.00
47726;BME280;33483;48.294;16.388;2023-03-14T04:46:50;97921.88;;;7.00;100.00
47726;BME280;33483;48.294;16.388;2023-03-14T04:49:17;97922.41;;;6.98;100.00
47726;BME280;33483;48.294;16.388;2023-03-14T04:51:45;97924.25;;;6.96;100.00
47726;BME280;33483;48.294;16.388;2023-03-14T04:54:12;97928.25;;;6.95;100.00
47726;BME280;33483;48.294;16.388;2023-03-14T04:56:39;97913.03;;;6.94;100.00
47726;BME280;33483;48.294;16.388;2023-03-14T04:59:08;97898.56;;;7.01;100.00
47726;BME280;33483;48.294;16.388;2023-03-14T05:01:38;97896.03;;;7.10;100.00
47726;BME280;33483;48.294;16.388;2023-03-14T05:04:40;97916.25;;;7.13;100.00
47726;BME280;33483;48.294;16.388;2023-03-14T05:07:28;97919.22;;;7.15;100.00
47726;BME280;33483;48.294;16.388;2023-03-14T05:10:21;97917.63;;;7.27;100.00
47726;BME280;33483;48.294;16.388;2023-03-14T05:13:09;97917.78;;;7.29;100.00
47726;BME280;33483;48.294;16.388;2023-03-14T05:15:45;97916.31;;;7.28;100.00
47726;BME280;33483;48.294;16.388;2023-03-14T05:18:29;97893.94;;;7.31;100.00
47726;BME280;33483;48.294;16.388;2023-03-14T05:21:19;97925.91;;;7.34;100.00
47726;BME280;33483;48.294;16.388;2023-03-14T05:24:06;97932.53;;;7.39;100.00
47726;BME280;33483;48.294;16.388;2023-03-14T05:27:08;97924.28;;;7.46;100.00
47726;BME280;33483;48.294;16.388;2023-03-14T05:29:44;97922.59;;;7.79;100.00
47726;BME280;33483;48.294;16.388;2023-03-14T05:32:17;97946.34;;;7.97;100.00
47726;BME280;33483;48.294;16.388;2023-03-14T05:35:13;97960.34;;;8.07;100.00
47726;BME280;33483;48.294;16.388;2023-03-14T05:38:10;97978.34;;;8.00;100.00
47726;BME280;33483;48.294;16.388;2023-03-14T05:40:49;97973.47;;;7.70;100.00
47726;BME280;33483;48.294;16.388;2023-03-14T05:43:42;97979.25;;;7.52;100.00
47726;BME280;33483;48.294;16.388;2023-03-14T05:46:38;97986.53;;;7.34;100.00
47726;BME280;33483;48.294;16.388;2023-03-14T05:49:24;97986.09;;;7.23;100.00
47726;BME280;33483;48.294;16.388;2023-03-14T05:52:07;97996.38;;;7.22;100.00
47726;BME280;33483;48.294;16.388;2023-03-14T05:55:04;97997.13;;;7.23;100.00
47726;BME280;33483;48.294;16.388;2023-03-14T05:57:57;97997.66;;;7.21;100.00
47726;BME280;33483;48.294;16.388;2023-03-14T06:00:43;97993.03;;;7.16;100.00
47726;BME280;33483;48.294;16.388;2023-03-14T06:03:24;98006.41;;;7.12;100.00
47726;BME280;33483;48.294;16.388;2023-03-14T06:05:51;97999.97;;;7.10;100.00
47726;BME280;33483;48.294;16.388;2023-03-14T06:08:21;98024.56;;;7.08;100.00
47726;BME280;33483;48.294;16.388;2023-03-14T06:10:48;98024.38;;;7.06;100.00
47726;BME280;33483;48.294;16.388;2023-03-14T06:13:16;98009.91;;;7.13;100.00
47726;BME280;33483;48.294;16.388;2023-03-14T06:15:43;98029.00;;;7.11;100.00
47726;BME280;33483;48.294;16.388;2023-03-14T06:18:11;98013.00;;;7.09;100.00
47726;BME280;33483;48.294;16.388;2023-03-14T06:20:40;98002.38;;;7.13;100.00
47726;BME280;33483;48.294;16.388;2023-03-14T06:23:10;97996.72;;;7.19;100.00
47726;BME280;33483;48.294;16.388;2023-03-14T06:25:37;98008.19;;;7.30;100.00
47726;BME280;33483;48.294;16.388;2023-03-14T06:28:05;98008.97;;;7.38;100.00
47726;BME280;33483;48.294;16.388;2023-03-14T06:30:32;98004.63;;;7.50;100.00
47726;BME280;33483;48.294;16.388;2023-03-14T06:32:59;98009.47;;;7.65;100.00
47726;BME280;33483;48.294;16.388;2023-03-14T06:35:30;97990.44;;;7.82;100.00
47726;BME280;33483;48.294;16.388;2023-03-14T06:37:57;98007.38;;;7.93;100.00
47726;BME280;33483;48.294;16.388;2023-03-14T06:40:24;98014.06;;;8.13;100.00
47726;BME280;33483;48.294;16.388;2023-03-14T06:42:59;98019.66;;;8.36;100.00
47726;BME280;33483;48.294;16.388;2023-03-14T06:45:29;98023.38;;;8.53;100.00
47726;BME280;33483;48.294;16.388;2023-03-14T06:47:58;98019.53;;;8.64;100.00
47726;BME280;33483;48.294;16.388;2023-03-14T06:50:34;98014.75;;;8.72;100.00
47726;BME280;33483;48.294;16.388;2023-03-14T06:53:03;98004.44;;;8.87;100.00
47726;BME280;33483;48.294;16.388;2023-03-14T06:55:33;98008.28;;;9.15;100.00
47726;BME280;33483;48.294;16.388;2023-03-14T06:58:01;97984.63;;;9.51;100.00
47726;BME280;33483;48.294;16.388;2023-03-14T07:00:28;98003.47;;;10.57;100.00
47726;BME280;33483;48.294;16.388;2023-03-14T07:02:56;98015.50;;;12.11;100.00
47726;BME280;33483;48.294;16.388;2023-03-14T07:05:28;98014.38;;;13.13;89.26
47726;BME280;33483;48.294;16.388;2023-03-14T07:07:55;98023.53;;;12.96;86.46
47726;BME280;33483;48.294;16.388;2023-03-14T07:10:23;98022.13;;;13.05;79.82
47726;BME280;33483;48.294;16.388;2023-03-14T07:12:50;98028.22;;;14.35;70.34
47726;BME280;33483;48.294;16.388;2023-03-14T07:15:21;98034.47;;;14.95;63.56
47726;BME280;33483;48.294;16.388;2023-03-14T07:17:54;98040.13;;;14.76;62.12
47726;BME280;33483;48.294;16.388;2023-03-14T07:20:24;98040.25;;;13.80;66.24
47726;BME280;33483;48.294;16.388;2023-03-14T07:22:52;98039.91;;;12.92;72.18
47726;BME280;33483;48.294;16.388;2023-03-14T07:25:30;98046.50;;;12.34;76.44
47726;BME280;33483;48.294;16.388;2023-03-14T07:27:59;98039.16;;;11.85;84.63
47726;BME280;33483;48.294;16.388;2023-03-14T07:30:27;98029.56;;;11.62;90.01
47726;BME280;33483;48.294;16.388;2023-03-14T07:32:55;98027.06;;;11.73;89.31
47726;BME280;33483;48.294;16.388;2023-03-14T07:35:24;98034.75;;;11.41;91.46
47726;BME280;33483;48.294;16.388;2023-03-14T07:37:51;98038.34;;;11.33;90.54
47726;BME280;33483;48.294;16.388;2023-03-14T07:40:28;98034.47;;;11.12;95.83
47726;BME280;33483;48.294;16.388;2023-03-14T07:42:56;98036.69;;;11.13;97.67
47726;BME280;33483;48.294;16.388;2023-03-14T07:45:35;98035.06;;;11.10;100.00
47726;BME280;33483;48.294;16.388;2023-03-14T07:48:08;98040.25;;;11.06;99.66
47726;BME280;33483;48.294;16.388;2023-03-14T07:50:36;98040.25;;;11.06;100.00
47726;BME280;33483;48.294;16.388;2023-03-14T07:53:06;98024.75;;;11.03;100.00
47726;BME280;33483;48.294;16.388;2023-03-14T07:55:33;98037.88;;;11.03;100.00
47726;BME280;33483;48.294;16.388;2023-03-14T07:58:00;98034.38;;;11.02;100.00
47726;BME280;33483;48.294;16.388;2023-03-14T08:00:30;98041.41;;;11.03;100.00
47726;BME280;33483;48.294;16.388;2023-03-14T08:03:00;98038.47;;;11.01;100.00
47726;BME280;33483;48.294;16.388;2023-03-14T08:05:28;98031.44;;;11.00;100.00
47726;BME280;33483;48.294;16.388;2023-03-14T08:07:55;98026.28;;;10.97;100.00
47726;BME280;33483;48.294;16.388;2023-03-14T08:10:24;98031.09;;;10.96;100.00
47726;BME280;33483;48.294;16.388;2023-03-14T08:12:56;98034.19;;;11.00;100.00
47726;BME280;33483;48.294;16.388;2023-03-14T08:15:23;98021.03;;;11.08;100.00
47726;BME280;33483;48.294;16.388;2023-03-14T08:17:50;98007.16;;;11.08;100.00
47726;BME280;33483;48.294;16.388;2023-03-14T08:20:18;98005.22;;;11.18;100.00
47726;BME280;33483;48.294;16.388;2023-03-14T08:22:45;98016.78;;;11.24;100.00
47726;BME280;33483;48.294;16.388;2023-03-14T08:25:12;98012.31;;;11.29;100.00
47726;BME280;33483;48.294;16.388;2023-03-14T08:27:39;98000.44;;;11.36;100.00
47726;BME280;33483;48.294;16.388;2023-03-14T08:30:09;97996.66;;;11.41;100.00
47726;BME280;33483;48.294;16.388;2023-03-14T08:32:37;98000.34;;;11.44;100.00
47726;BME280;33483;48.294;16.388;2023-03-14T08:35:04;98004.41;;;11.43;100.00
47726;BME280;33483;48.294;16.388;2023-03-14T08:37:32;98003.28;;;11.46;100.00
47726;BME280;33483;48.294;16.388;2023-03-14T08:39:59;98005.06;;;11.51;100.00
47726;BME280;33483;48.294;16.388;2023-03-14T08:42:27;98014.81;;;11.59;100.00
47726;BME280;33483;48.294;16.388;2023-03-14T08:44:54;98017.84;;;11.71;100.00
47726;BME280;33483;48.294;16.388;2023-03-14T08:47:21;98016.19;;;11.85;100.00
47726;BME280;33483;48.294;16.388;2023-03-14T08:49:48;98014.78;;;11.93;100.00
47726;BME280;33483;48.294;16.388;2023-03-14T08:52:15;98008.91;;;12.06;100.00
47726;BME280;33483;48.294;16.388;2023-03-14T08:54:43;98001.13;;;12.05;100.00
47726;BME280;33483;48.294;16.388;2023-03-14T08:57:13;98003.91;;;12.05;100.00
47726;BME280;33483;48.294;16.388;2023-03-14T08:59:40;98011.41;;;12.12;100.00
47726;BME280;33483;48.294;16.388;2023-03-14T09:02:09;98003.25;;;12.14;100.00
47726;BME280;33483;48.294;16.388;2023-03-14T09:04:39;98000.22;;;12.19;100.00
47726;BME280;33483;48.294;16.388;2023-03-14T09:07:06;97998.34;;;12.22;100.00
47726;BME280;33483;48.294;16.388;2023-03-14T09:09:33;97999.03;;;12.22;100.00
47726;BME280;33483;48.294;16.388;2023-03-14T09:12:00;97997.34;;;12.27;100.00
47726;BME280;33483;48.294;16.388;2023-03-14T09:14:30;98003.19;;;12.31;100.00
47726;BME280;33483;48.294;16.388;2023-03-14T09:16:57;97999.38;;;12.26;100.00
47726;BME280;33483;48.294;16.388;2023-03-14T09:19:24;98001.91;;;12.32;100.00
47726;BME280;33483;48.294;16.388;2023-03-14T09:21:52;98012.44;;;12.33;99.55
47726;BME280;33483;48.294;16.388;2023-03-14T09:24:21;98013.09;;;12.24;97.88
47726;BME280;33483;48.294;16.388;2023-03-14T09:26:50;98011.72;;;12.16;100.00
47726;BME280;33483;48.294;16.388;2023-03-14T09:29:17;98011.09;;;12.08;96.53
47726;BME280;33483;48.294;16.388;2023-03-14T09:31:45;98012.81;;;12.03;97.56
47726;BME280;33483;48.294;16.388;2023-03-14T09:34:14;98011.53;;;12.04;98.37
47726;BME280;33483;48.294;16.388;2023-03-14T09:36:41;98020.69;;;11.97;100.00
47726;BME280;33483;48.294;16.388;2023-03-14T09:39:11;98018.72;;;11.90;100.00
47726;BME280;33483;48.294;16.388;2023-03-14T09:41:43;98020.44;;;11.86;100.00
47726;BME280;33483;48.294;16.388;2023-03-14T09:44:30;98028.44;;;11.82;100.00
47726;BME280;33483;48.294;16.388;2023-03-14T09:47:03;98024.94;;;11.81;100.00
47726;BME280;33483;48.294;16.388;2023-03-14T09:49:37;98014.25;;;11.78;100.00
47726;BME280;33483;48.294;16.388;2023-03-14T09:52:17;98018.47;;;11.79;100.00
47726;BME280;33483;48.294;16.388;2023-03-14T09:54:48;98031.63;;;11.78;100.00
47726;BME280;33483;48.294;16.388;2023-03-14T09:57:20;98015.56;;;11.77;100.00
47726;BME280;33483;48.294;16.388;2023-03-14T09:59:48;98023.38;;;11.71;100.00
47726;BME280;33483;48.294;16.388;2023-03-14T10:02:23;98026.00;;;11.69;100.00
47726;BME280;33483;48.294;16.388;2023-03-14T10:04:51;98034.50;;;11.71;100.00
47726;BME280;33483;48.294;16.388;2023-03-14T10:07:29;98041.50;;;11.72;100.00
47726;BME280;33483;48.294;16.388;2023-03-14T10:09:59;98024.53;;;11.68;100.00
47726;BME280;33483;48.294;16.388;2023-03-14T10:12:36;98032.88;;;11.68;100.00
47726;BME280;33483;48.294;16.388;2023-03-14T10:15:07;98028.03;;;11.68;100.00
47726;BME280;33483;48.294;16.388;2023-03-14T10:17:41;98045.25;;;11.67;100.00
47726;BME280;33483;48.294;16.388;2023-03-14T10:20:28;98029.19;;;11.65;100.00
47726;BME280;33483;48.294;16.388;2023-03-14T10:23:04;98023.22;;;11.69;100.00
47726;BME280;33483;48.294;16.388;2023-03-14T10:25:33;98030.81;;;11.68;100.00
47726;BME280;33483;48.294;16.388;2023-03-14T10:28:00;98029.69;;;11.71;100.00
47726;BME280;33483;48.294;16.388;2023-03-14T10:32:55;98016.22;;;11.68;100.00
47726;BME280;33483;48.294;16.388;2023-03-14T10:35:22;98021.75;;;11.68;100.00
47726;BME280;33483;48.294;16.388;2023-03-14T10:37:51;98036.94;;;11.67;100.00
47726;BME280;33483;48.294;16.388;2023-03-14T10:40:19;98049.34;;;11.66;100.00
47726;BME280;33483;48.294;16.388;2023-03-14T10:42:47;98048.03;;;11.67;100.00
47726;BME280;33483;48.294;16.388;2023-03-14T10:45:25;98044.28;;;11.72;100.00
47726;BME280;33483;48.294;16.388;2023-03-14T10:47:57;98030.88;;;11.95;100.00
47726;BME280;33483;48.294;16.388;2023-03-14T10:50:26;98032.78;;;12.19;100.00
47726;BME280;33483;48.294;16.388;2023-03-14T10:52:54;98028.06;;;12.29;100.00
47726;BME280;33483;48.294;16.388;2023-03-14T10:55:32;98006.28;;;12.35;100.00
47726;BME280;33483;48.294;16.388;2023-03-14T10:58:16;98016.81;;;12.36;100.00
47726;BME280;33483;48.294;16.388;2023-03-14T11:00:43;98011.09;;;12.34;100.00
47726;BME280;33483;48.294;16.388;2023-03-14T11:03:13;98008.19;;;12.32;96.70
47726;BME280;33483;48.294;16.388;2023-03-14T11:08:18;98002.00;;;12.24;94.28
47726;BME280;33483;48.294;16.388;2023-03-14T11:10:47;98016.78;;;12.27;91.76
47726;BME280;33483;48.294;16.388;2023-03-14T11:13:20;98013.50;;;12.21;92.77
47726;BME280;33483;48.294;16.388;2023-03-14T11:23:32;97992.34;;;11.99;86.33
47726;BME280;33483;48.294;16.388;2023-03-14T11:29:12;98001.50;;;11.92;87.38
47726;BME280;33483;48.294;16.388;2023-03-14T11:31:43;98004.53;;;11.86;88.19
47726;BME280;33483;48.294;16.388;2023-03-14T11:34:16;98001.81;;;11.79;89.15
47726;BME280;33483;48.294;16.388;2023-03-14T11:36:46;97998.56;;;11.73;89.47
47726;BME280;33483;48.294;16.388;2023-03-14T11:39:17;97985.69;;;11.68;89.74
47726;BME280;33483;48.294;16.388;2023-03-14T11:41:49;97999.56;;;11.68;88.37
47726;BME280;33483;48.294;16.388;2023-03-14T11:44:19;98002.38;;;11.60;90.12
47726;BME280;33483;48.294;16.388;2023-03-14T11:46:51;97991.69;;;11.57;89.73
47726;BME280;33483;48.294;16.388;2023-03-14T11:51:56;97989.16;;;11.51;92.40
47726;BME280;33483;48.294;16.388;2023-03-14T11:54:34;97983.31;;;11.47;93.09
47726;BME280;33483;48.294;16.388;2023-03-14T11:57:09;97987.78;;;11.43;93.93
47726;BME280;33483;48.294;16.388;2023-03-14T11:59:47;97991.53;;;11.38;94.53
47726;BME280;33483;48.294;16.388;2023-03-14T12:05:03;97969.97;;;11.28;97.54
47726;BME280;33483;48.294;16.388;2023-03-14T12:07:35;97974.06;;;11.27;97.73
47726;BME280;33483;48.294;16.388;2023-03-14T12:10:06;97965.06;;;11.19;97.95
47726;BME280;33483;48.294;16.388;2023-03-14T12:12:33;97972.50;;;11.17;98.64
47726;BME280;33483;48.294;16.388;2023-03-14T12:15:01;97966.06;;;11.14;99.60
47726;BME280;33483;48.294;16.388;2023-03-14T12:22:41;97984.06;;;11.06;100.00
47726;BME280;33483;48.294;16.388;2023-03-14T12:25:18;97986.09;;;11.05;100.00
47726;BME280;33483;48.294;16.388;2023-03-14T12:27:47;97978.75;;;11.00;100.00
47726;BME280;33483;48.294;16.388;2023-03-14T12:38:12;97987.56;;;10.89;100.00
47726;BME280;33483;48.294;16.388;2023-03-14T12:40:46;97994.38;;;10.88;100.00
47726;BME280;33483;48.294;16.388;2023-03-14T12:48:37;98028.44;;;10.81;100.00
47726;BME280;33483;48.294;16.388;2023-03-14T12:51:12;98025.88;;;10.76;100.00
47726;BME280;33483;48.294;16.388;2023-03-14T13:01:15;98020.41;;;10.68;100.00
47726;BME280;33483;48.294;16.388;2023-03-14T13:07:03;98031.50;;;10.68;100.00
47726;BME280;33483;48.294;16.388;2023-03-14T13:12:10;98022.84;;;10.64;100.00
47726;BME280;33483;48.294;16.388;2023-03-14T13:14:43;98025.03;;;10.66;100.00
47726;BME280;33483;48.294;16.388;2023-03-14T13:17:13;98013.38;;;10.67;100.00
47726;BME280;33483;48.294;16.388;2023-03-14T13:20:19;98018.03;;;10.65;100.00
47726;BME280;33483;48.294;16.388;2023-03-14T13:22:49;98004.78;;;10.56;100.00
47726;BME280;33483;48.294;16.388;2023-03-14T13:25:19;98006.59;;;10.61;100.00
47726;BME280;33483;48.294;16.388;2023-03-14T13:27:48;98005.53;;;10.56;100.00
47726;BME280;33483;48.294;16.388;2023-03-14T13:30:25;97999.03;;;10.61;100.00
47726;BME280;33483;48.294;16.388;2023-03-14T13:32:53;97991.88;;;10.58;100.00
47726;BME280;33483;48.294;16.388;2023-03-14T13:37:52;97991.88;;;10.58;100.00
47726;BME280;33483;48.294;16.388;2023-03-14T13:40:35;97993.31;;;10.59;100.00
47726;BME280;33483;48.294;16.388;2023-03-14T13:43:13;97985.91;;;10.62;100.00
47726;BME280;33483;48.294;16.388;2023-03-14T13:45:45;97996.97;;;10.62;100.00
47726;BME280;33483;48.294;16.388;2023-03-14T13:48:15;97999.53;;;10.67;100.00
47726;BME280;33483;48.294;16.388;2023-03-14T13:50:50;97991.22;;;10.67;100.00
47726;BME280;33483;48.294;16.388;2023-03-14T13:53:19;97991.75;;;10.73;100.00
47726;BME280;33483;48.294;16.388;2023-03-14T13:55:46;97998.91;;;10.76;99.69
47726;BME280;33483;48.294;16.388;2023-03-14T13:58:19;97991.91;;;10.75;100.00
47726;BME280;33483;48.294;16.388;2023-03-14T14:01:01;97995.25;;;10.74;100.00
47726;BME280;33483;48.294;16.388;2023-03-14T14:03:33;98007.63;;;10.73;100.00
47726;BME280;33483;48.294;16.388;2023-03-14T14:06:03;98003.41;;;10.72;100.00
47726;BME280;33483;48.294;16.388;2023-03-14T14:08:31;97996.59;;;10.65;100.00
47726;BME280;33483;48.294;16.388;2023-03-14T14:10:59;97998.81;;;10.67;100.00
47726;BME280;33483;48.294;16.388;2023-03-14T14:13:29;98001.81;;;10.61;100.00